Time;durP1;ratioP1;P1;durP2;ratioP2;P2;SDS_P1;SDS_P2;PMS_P1;PMS_P2;Temp;Humidity;BMP_temperature;BMP_pressure;BME280_temperature;BME280_humidity;BME280_pressure;Samples;Min_cycle;Max_cycle;Signal;HPM_P1;HPM_P2
2021/06/02 00:01:09;;;;;;;8.03;4.27;;;16.70;81.50;;;;;;5257877;27;20131;-63
2021/06/02 00:03:40;;;;;;;7.80;4.13;;;16.70;81.80;;;;;;5261233;27;20442;-62
2021/06/02 00:06:13;;;;;;;6.00;4.40;;;16.60;82.60;;;;;;5259187;27;20112;-63
2021/06/02 00:08:40;;;;;;;6.67;4.60;;;16.60;82.50;;;;;;5259471;27;20573;-63
2021/06/02 00:11:07;;;;;;;8.20;4.60;;;16.60;83.10;;;;;;5260921;27;20139;-64
2021/06/02 00:13:34;;;;;;;5.00;3.67;;;16.50;83.10;;;;;;5261309;27;20122;-63
2021/06/02 00:16:01;;;;;;;7.00;4.30;;;16.50;83.50;;;;;;5261361;27;20103;-63
2021/06/02 00:18:29;;;;;;;6.57;4.53;;;16.50;84.20;;;;;;5260844;27;20100;-62
2021/06/02 00:20:56;;;;;;;6.60;4.17;;;16.40;84.30;;;;;;5260575;27;20127;-63
2021/06/02 00:23:23;;;;;;;10.30;4.93;;;16.40;84.20;;;;;;5260403;27;20111;-63
2021/06/02 00:25:50;;;;;;;6.20;3.70;;;16.40;85.30;;;;;;5260557;27;20137;-63
2021/06/02 00:28:17;;;;;;;7.07;4.23;;;16.40;85.40;;;;;;5260806;27;20587;-64
2021/06/02 00:30:45;;;;;;;7.90;4.87;;;16.40;86.00;;;;;;5261387;27;20126;-63
2021/06/02 00:33:12;;;;;;;10.93;4.63;;;16.40;85.90;;;;;;5260566;27;20111;-63
2021/06/02 00:35:43;;;;;;;6.43;4.07;;;16.30;86.60;;;;;;5261292;27;20584;-63
2021/06/02 00:38:11;;;;;;;5.17;4.53;;;16.30;87.10;;;;;;5260779;27;20103;-64
2021/06/02 00:40:43;;;;;;;8.60;3.97;;;16.30;87.90;;;;;;5261888;27;20478;-62
2021/06/02 00:43:09;;;;;;;7.10;4.67;;;16.20;88.00;;;;;;5259896;27;20127;-63
2021/06/02 00:45:36;;;;;;;10.63;5.80;;;16.20;88.50;;;;;;5260466;27;20499;-62
2021/06/02 00:48:04;;;;;;;8.03;5.13;;;16.20;89.30;;;;;;5260439;27;20186;-63
2021/06/02 00:50:34;;;;;;;8.23;4.90;;;16.20;90.10;;;;;;5260928;27;20107;-63
2021/06/02 00:53:02;;;;;;;7.03;5.60;;;16.20;90.30;;;;;;5262054;27;20446;-61
2021/06/02 00:55:30;;;;;;;7.30;5.30;;;16.10;90.90;;;;;;5260754;27;20154;-63
2021/06/02 00:57:57;;;;;;;11.27;5.53;;;16.10;91.30;;;;;;5260868;27;20430;-62
2021/06/02 01:00:25;;;;;;;10.40;5.80;;;16.10;91.40;;;;;;5260665;27;20114;-64
2021/06/02 01:02:53;;;;;;;7.20;6.10;;;16.10;91.90;;;;;;5261898;27;20157;-62
2021/06/02 01:05:23;;;;;;;10.37;5.70;;;16.00;92.10;;;;;;5261037;27;20110;-62
2021/06/02 01:07:51;;;;;;;7.87;6.13;;;16.00;92.40;;;;;;5261596;27;20104;-64
2021/06/02 01:10:22;;;;;;;8.93;6.43;;;16.00;92.70;;;;;;5260277;27;20107;-62
2021/06/02 01:13:00;;;;;;;8.50;5.77;;;16.00;93.20;;;;;;5260057;27;20135;-62
2021/06/02 01:15:31;;;;;;;9.17;6.27;;;15.90;93.40;;;;;;5259132;27;20174;-64
2021/06/02 01:17:58;;;;;;;9.23;6.47;;;15.90;93.70;;;;;;5260122;27;20491;-63
2021/06/02 01:20:27;;;;;;;8.90;6.50;;;15.90;93.80;;;;;;5260701;27;20115;-63
2021/06/02 01:22:58;;;;;;;10.33;6.53;;;15.90;94.40;;;;;;5259881;27;20107;-63
2021/06/02 01:25:26;;;;;;;8.50;6.90;;;15.90;94.50;;;;;;5259494;27;20135;-63
2021/06/02 01:27:53;;;;;;;9.87;7.77;;;15.90;94.90;;;;;;5259905;27;20177;-62
2021/06/02 01:30:22;;;;;;;10.23;6.97;;;15.90;95.20;;;;;;5260163;27;20413;-63
2021/06/02 01:33:21;;;;;;;9.47;6.90;;;15.80;95.80;;;;;;5260511;27;20107;-63
2021/06/02 01:36:02;;;;;;;10.43;7.33;;;15.80;96.10;;;;;;5260211;27;20414;-62
2021/06/02 01:39:08;;;;;;;9.77;7.63;;;15.80;95.70;;;;;;5260298;27;20099;-63
2021/06/02 01:42:10;;;;;;;8.83;7.00;;;15.80;95.90;;;;;;5260070;27;20425;-63
2021/06/02 01:45:06;;;;;;;12.03;7.97;;;15.80;96.20;;;;;;5152416;27;20174;-63
2021/06/02 01:48:00;;;;;;;9.63;6.77;;;15.70;96.10;;;;;;5151594;27;20108;-64
2021/06/02 01:50:53;;;;;;;11.27;8.00;;;15.70;96.10;;;;;;5151612;27;20662;-64
2021/06/02 01:53:46;;;;;;;8.03;7.23;;;15.70;96.50;;;;;;5151544;27;20112;-63
2021/06/02 01:56:54;;;;;;;11.97;7.43;;;15.70;97.00;;;;;;5151718;27;20260;-64
2021/06/02 01:59:57;;;;;;;9.07;7.33;;;15.70;97.40;;;;;;5070794;28;20602;-63
2021/06/02 02:03:15;;;;;;;9.70;8.47;;;15.70;97.50;;;;;;5050124;28;20468;-63
2021/06/02 02:06:29;;;;;;;14.27;8.33;;;15.60;97.10;;;;;;5052600;28;20121;-63
2021/06/02 02:09:05;;;;;;;11.30;9.33;;;15.60;97.90;;;;;;5050332;28;20182;-61
2021/06/02 02:11:35;;;;;;;11.53;8.60;;;15.60;98.70;;;;;;5050303;28;20212;-63
2021/06/02 02:14:14;;;;;;;11.30;9.17;;;15.50;98.50;;;;;;5050383;28;20142;-63
2021/06/02 02:17:00;;;;;;;14.50;10.47;;;15.50;98.90;;;;;;5050334;28;20139;-63
2021/06/02 02:19:44;;;;;;;14.27;10.10;;;15.50;99.50;;;;;;5050514;28;20527;-63
2021/06/02 02:22:28;;;;;;;15.30;9.07;;;15.40;99.70;;;;;;5114818;27;20325;-63
2021/06/02 02:25:01;;;;;;;14.80;10.23;;;15.50;99.90;;;;;;5131183;28;20158;-63
2021/06/02 02:27:37;;;;;;;11.60;9.10;;;15.40;99.70;;;;;;5131404;28;20493;-62
2021/06/02 02:30:08;;;;;;;12.60;10.13;;;15.40;99.90;;;;;;5131459;28;20129;-63
2021/06/02 02:33:09;;;;;;;15.70;10.80;;;15.30;99.90;;;;;;5130830;28;20289;-62
2021/06/02 02:35:45;;;;;;;12.70;10.77;;;15.30;99.90;;;;;;5146676;27;20542;-62
2021/06/02 02:38:28;;;;;;;13.53;10.33;;;15.40;99.90;;;;;;5200393;27;20128;-62
2021/06/02 02:41:04;;;;;;;16.43;10.83;;;15.30;99.90;;;;;;5261250;27;20441;-61
2021/06/02 02:43:46;;;;;;;14.87;10.73;;;15.30;99.90;;;;;;5260941;27;20115;-62
2021/06/02 02:46:20;;;;;;;12.23;10.23;;;15.30;99.90;;;;;;5261648;27;20162;-62
2021/06/02 02:48:55;;;;;;;14.03;10.87;;;15.30;99.90;;;;;;5261327;27;20146;-63
2021/06/02 02:51:28;;;;;;;11.40;10.20;;;15.30;99.90;;;;;;5261558;27;20460;-62
2021/06/02 02:54:03;;;;;;;14.00;10.70;;;15.20;99.90;;;;;;5261156;27;20111;-62
2021/06/02 02:56:44;;;;;;;13.77;11.10;;;15.30;99.90;;;;;;5261470;27;20538;-62
2021/06/02 02:59:19;;;;;;;12.60;9.87;;;15.30;99.90;;;;;;5261596;27;20139;-62
2021/06/02 03:01:53;;;;;;;13.10;10.70;;;15.20;99.90;;;;;;5261805;27;20157;-62
2021/06/02 03:04:23;;;;;;;13.40;10.37;;;15.30;99.90;;;;;;5261182;27;20106;-64
2021/06/02 03:06:54;;;;;;;14.97;10.83;;;15.30;99.90;;;;;;5262054;27;20491;-62
2021/06/02 03:09:32;;;;;;;12.23;10.30;;;15.20;99.90;;;;;;5261272;27;20161;-63
2021/06/02 03:12:09;;;;;;;13.00;10.23;;;15.20;99.90;;;;;;5261642;27;20153;-62
2021/06/02 03:14:48;;;;;;;13.20;9.70;;;15.20;99.90;;;;;;5262093;27;20563;-63
2021/06/02 03:17:21;;;;;;;14.57;10.33;;;15.20;99.90;;;;;;5262129;27;20167;-62
2021/06/02 03:20:00;;;;;;;13.10;10.67;;;15.20;99.90;;;;;;5263138;27;20196;-61
2021/06/02 03:22:31;;;;;;;13.23;10.10;;;15.10;99.90;;;;;;5261437;27;20118;-62
2021/06/02 03:25:09;;;;;;;15.63;10.47;;;15.10;99.90;;;;;;5260906;27;20178;-62
2021/06/02 03:27:46;;;;;;;14.50;10.73;;;15.00;99.90;;;;;;5263242;27;20118;-63
2021/06/02 03:30:23;;;;;;;12.50;10.07;;;15.10;99.90;;;;;;5262184;27;20107;-64
2021/06/02 03:33:16;;;;;;;13.30;10.67;;;15.00;99.90;;;;;;5263846;27;20114;-63
2021/06/02 03:35:56;;;;;;;14.83;11.00;;;15.10;99.90;;;;;;5173766;27;20135;-62
2021/06/02 03:38:49;;;;;;;16.20;11.67;;;15.10;99.90;;;;;;5173695;27;20171;-62
2021/06/02 03:41:23;;;;;;;16.00;11.93;;;15.00;99.90;;;;;;5173678;27;20121;-61
2021/06/02 03:43:56;;;;;;;14.10;11.53;;;15.00;99.90;;;;;;5173712;27;20111;-61
2021/06/02 03:46:45;;;;;;;21.70;11.90;;;15.00;99.90;;;;;;5173245;27;20128;-62
2021/06/02 03:49:14;;;;;;;13.63;11.50;;;15.00;99.90;;;;;;5173972;27;20447;-62
2021/06/02 03:51:49;;;;;;;15.00;12.03;;;15.10;99.90;;;;;;5172728;27;20112;-62
2021/06/02 03:54:31;;;;;;;13.60;11.53;;;15.00;99.90;;;;;;5173867;27;20251;-62
2021/06/02 03:57:18;;;;;;;14.60;10.83;;;15.10;99.90;;;;;;5173632;27;20108;-63
2021/06/02 03:59:53;;;;;;;21.40;12.67;;;15.20;99.90;;;;;;5173544;27;20188;-63
2021/06/02 04:02:22;;;;;;;16.00;11.13;;;15.30;99.90;;;;;;5173689;27;20112;-62
2021/06/02 04:05:13;;;;;;;14.50;11.90;;;15.30;99.90;;;;;;5173423;27;20125;-62
2021/06/02 04:07:46;;;;;;;15.13;11.40;;;15.40;99.90;;;;;;5173735;27;20113;-62
2021/06/02 04:10:14;;;;;;;14.70;11.47;;;15.40;99.90;;;;;;5173640;27;20141;-63
2021/06/02 04:12:50;;;;;;;14.60;11.57;;;15.50;99.90;;;;;;5215244;27;20138;-63
2021/06/02 04:15:17;;;;;;;17.63;12.90;;;15.60;99.90;;;;;;5262021;27;20107;-62
2021/06/02 04:17:49;;;;;;;15.77;12.03;;;15.70;99.90;;;;;;5260865;27;20138;-63
2021/06/02 04:20:17;;;;;;;14.40;11.67;;;15.70;99.90;;;;;;5261101;27;20111;-63
2021/06/02 04:22:47;;;;;;;14.47;12.17;;;15.80;99.90;;;;;;5261036;27;20549;-61
2021/06/02 04:25:15;;;;;;;14.07;12.57;;;15.90;99.90;;;;;;5262900;27;20139;-62
2021/06/02 04:27:46;;;;;;;18.10;12.43;;;16.00;99.90;;;;;;5261348;27;20114;-62
2021/06/02 04:30:14;;;;;;;14.47;11.50;;;16.00;99.90;;;;;;5261246;27;20127;-63
2021/06/02 04:32:42;;;;;;;17.00;12.40;;;16.10;99.90;;;;;;5260748;27;20130;-62
2021/06/02 04:35:11;;;;;;;14.00;12.23;;;16.20;99.90;;;;;;5260577;27;20122;-63
2021/06/02 04:37:39;;;;;;;15.83;12.57;;;16.10;99.90;;;;;;5260951;27;20134;-63
2021/06/02 04:40:09;;;;;;;15.70;12.20;;;16.20;99.90;;;;;;5260688;27;20122;-63
2021/06/02 04:42:36;;;;;;;17.27;11.97;;;16.40;99.90;;;;;;5260629;27;20107;-62
2021/06/02 04:45:04;;;;;;;14.17;11.87;;;16.60;99.90;;;;;;5260935;27;20108;-61
2021/06/02 04:47:33;;;;;;;14.77;12.20;;;16.80;99.90;;;;;;5259663;27;20169;-62
2021/06/02 04:50:11;;;;;;;15.13;11.70;;;16.90;99.90;;;;;;5260589;27;20549;-62
2021/06/02 04:53:23;;;;;;;18.77;12.93;;;17.30;99.90;;;;;;5257971;27;20141;-61
2021/06/02 04:56:30;;;;;;;15.80;12.03;;;17.40;99.90;;;;;;5262635;27;20107;-61
2021/06/02 04:59:32;;;;;;;14.00;10.97;;;17.30;99.90;;;;;;5258774;27;20114;-64
2021/06/02 05:02:26;;;;;;;16.30;13.37;;;17.40;99.90;;;;;;5262889;27;20150;-63
2021/06/02 05:05:18;;;;;;;15.77;12.80;;;17.70;99.50;;;;;;5260529;27;20107;-64
2021/06/02 05:08:21;;;;;;;13.20;11.80;;;18.10;98.70;;;;;;5260847;27;20123;-64
2021/06/02 05:11:21;;;;;;;16.57;12.37;;;18.30;98.20;;;;;;5260571;27;20175;-63
2021/06/02 05:14:24;;;;;;;14.90;11.77;;;18.10;98.50;;;;;;5172763;27;20291;-63
2021/06/02 05:17:31;;;;;;;17.33;12.50;;;17.90;98.90;;;;;;5173334;27;20127;-62
2021/06/02 05:20:51;;;;;;;15.13;12.53;;;17.90;99.30;;;;;;5172301;27;20119;-63
2021/06/02 05:23:49;;;;;;;17.40;12.30;;;18.30;99.30;;;;;;5173008;27;20167;-63
2021/06/02 05:26:34;;;;;;;12.97;11.13;;;19.50;98.10;;;;;;5172355;27;20637;-62
2021/06/02 05:29:38;;;;;;;18.33;12.00;;;20.70;95.70;;;;;;5172866;27;20462;-63
2021/06/02 05:32:44;;;;;;;14.80;12.17;;;21.70;93.80;;;;;;5139176;27;20306;-62
2021/06/02 05:36:00;;;;;;;16.43;11.27;;;21.30;92.50;;;;;;5173546;27;20124;-62
2021/06/02 05:39:24;;;;;;;13.90;11.70;;;20.80;93.50;;;;;;5172717;27;20125;-63
2021/06/02 05:42:24;;;;;;;14.23;11.60;;;20.50;93.40;;;;;;5050294;28;20126;-64
2021/06/02 05:45:27;;;;;;;14.13;10.90;;;21.10;92.80;;;;;;5050506;28;20130;-65
2021/06/02 05:48:31;;;;;;;14.80;10.30;;;22.90;90.70;;;;;;5050213;28;20106;-64
2021/06/02 05:51:33;;;;;;;13.37;11.13;;;24.20;86.20;;;;;;5086999;28;20591;-64
2021/06/02 06:13:10;;;;;;;14.63;11.80;;;20.30;91.90;;;;;;5000778;28;20162;-61
2021/06/02 06:16:23;;;;;;;12.60;10.77;;;20.10;92.70;;;;;;5031424;28;20179;-61
2021/06/02 06:19:36;;;;;;;15.30;10.57;;;20.00;92.90;;;;;;5057814;28;20157;-63
2021/06/02 06:22:15;;;;;;;15.47;11.03;;;20.00;93.10;;;;;;5070566;28;20146;-62
2021/06/02 06:24:47;;;;;;;13.20;11.13;;;20.00;92.90;;;;;;5071054;28;20148;-63
2021/06/02 06:27:20;;;;;;;13.77;11.10;;;19.90;92.80;;;;;;5073062;28;20160;-63
2021/06/02 06:29:56;;;;;;;12.30;10.53;;;19.80;93.20;;;;;;5069798;28;20153;-64
2021/06/02 06:32:25;;;;;;;16.13;11.53;;;19.90;93.30;;;;;;5071674;28;20117;-63
2021/06/02 06:34:53;;;;;;;18.53;11.63;;;20.00;93.40;;;;;;5159567;27;20120;-63
2021/06/02 06:37:20;;;;;;;12.03;10.83;;;20.10;92.60;;;;;;5173998;27;20125;-63
2021/06/02 06:39:51;;;;;;;15.23;10.77;;;20.20;92.40;;;;;;5173624;27;20155;-64
2021/06/02 06:42:21;;;;;;;15.13;10.97;;;20.20;92.50;;;;;;5188969;27;20140;-65
2021/06/02 06:44:52;;;;;;;14.00;11.50;;;20.30;91.90;;;;;;5238218;27;20157;-61
2021/06/02 06:47:21;;;;;;;12.97;10.13;;;20.20;92.20;;;;;;5237601;27;20131;-62
2021/06/02 06:49:52;;;;;;;13.73;9.67;;;20.10;92.60;;;;;;5261877;27;20630;-64
2021/06/02 06:52:22;;;;;;;12.60;10.77;;;20.20;92.90;;;;;;5263030;27;20561;-63
2021/06/02 06:54:54;;;;;;;13.73;10.40;;;20.20;91.90;;;;;;5261196;27;20142;-63
2021/06/02 06:57:22;;;;;;;36.20;14.10;;;20.30;91.60;;;;;;5262577;27;20527;-64
2021/06/02 06:59:49;;;;;;;15.43;10.33;;;20.40;91.70;;;;;;5261481;27;20146;-63
2021/06/02 07:02:20;;;;;;;14.67;10.43;;;20.50;91.70;;;;;;5261465;27;20142;-62
2021/06/02 07:04:50;;;;;;;12.17;9.70;;;20.60;91.20;;;;;;5261457;27;20125;-62
2021/06/02 07:07:21;;;;;;;11.67;9.90;;;20.70;91.10;;;;;;5261129;27;20127;-62
2021/06/02 07:09:48;;;;;;;15.40;10.17;;;20.90;91.00;;;;;;5261317;27;20165;-63
2021/06/02 07:12:16;;;;;;;14.70;9.77;;;21.30;90.80;;;;;;5261258;27;20108;-63
2021/06/02 07:14:43;;;;;;;13.40;9.63;;;21.70;90.00;;;;;;5261260;27;20134;-63
2021/06/02 07:17:10;;;;;;;15.20;10.07;;;21.90;88.50;;;;;;5260919;27;20539;-63
2021/06/02 07:19:43;;;;;;;12.93;9.03;;;22.00;86.90;;;;;;5263358;27;20507;-63
2021/06/02 07:22:10;;;;;;;9.63;8.60;;;23.30;85.10;;;;;;5260502;27;20104;-63
2021/06/02 07:24:37;;;;;;;14.33;10.37;;;25.50;80.10;;;;;;5261366;27;20126;-64
2021/06/02 07:27:05;;;;;;;13.50;9.37;;;27.30;73.40;;;;;;5260402;27;20145;-62
2021/06/02 07:29:31;;;;;;;11.93;8.48;;;27.10;68.70;;;;;;5261888;27;20553;-62
2021/06/02 07:31:58;;;;;;;9.90;8.55;;;27.50;67.60;;;;;;5262101;27;20104;-64
2021/06/02 07:34:24;;;;;;;12.10;8.38;;;27.90;67.70;;;;;;5260876;27;20117;-64
2021/06/02 07:36:52;;;;;;;12.45;8.60;;;28.10;66.90;;;;;;5261717;27;20103;-63
2021/06/02 07:39:19;;;;;;;12.77;7.20;;;28.10;64.80;;;;;;5260992;27;20147;-63
2021/06/02 07:41:45;;;;;;;11.48;7.50;;;30.30;63.00;;;;;;5261112;27;20112;-63
2021/06/02 07:44:12;;;;;;;10.30;7.78;;;32.80;58.70;;;;;;5263469;27;20164;-65
2021/06/02 07:46:38;;;;;;;8.07;6.25;;;38.10;49.70;;;;;;5262028;27;20143;-63
2021/06/02 07:49:06;;;;;;;7.85;7.07;;;43.40;41.00;;;;;;5260600;27;20118;-62
2021/06/02 07:51:33;;;;;;;9.10;6.40;;;46.40;34.70;;;;;;5260335;27;20135;-65
2021/06/02 07:54:00;;;;;;;7.53;5.72;;;49.00;32.70;;;;;;5260007;27;20145;-63
2021/06/02 07:56:27;;;;;;;7.22;5.55;;;51.30;30.70;;;;;;5260761;27;20107;-63
2021/06/02 07:58:53;;;;;;;7.32;6.03;;;53.00;29.60;;;;;;5261218;27;20107;-66
2021/06/02 08:01:19;;;;;;;7.68;6.80;;;54.40;28.70;;;;;;5260909;27;20118;-65
2021/06/02 08:03:46;;;;;;;6.97;6.28;;;55.70;28.20;;;;;;5262040;27;20164;-64
2021/06/02 08:06:12;;;;;;;5.70;5.10;;;56.40;27.50;;;;;;5259879;27;20126;-63
2021/06/02 08:08:39;;;;;;;8.30;5.95;;;57.20;27.30;;;;;;5260537;27;20135;-62
2021/06/02 08:11:07;;;;;;;7.47;6.62;;;57.20;26.80;;;;;;5261909;27;20154;-65
2021/06/02 08:13:33;;;;;;;6.80;6.20;;;56.90;27.00;;;;;;5260359;27;20123;-62
2021/06/02 08:16:00;;;;;;;7.20;5.47;;;57.20;26.90;;;;;;5260411;27;20127;-61
2021/06/02 08:18:26;;;;;;;6.55;5.53;;;58.20;26.60;;;;;;5260558;27;20107;-62
2021/06/02 08:20:56;;;;;;;6.57;5.30;;;58.20;26.20;;;;;;5260871;27;20111;-63
2021/06/02 08:23:22;;;;;;;6.72;5.28;;;58.00;26.60;;;;;;5260715;27;20440;-63
2021/06/02 08:25:51;;;;;;;6.18;4.55;;;57.70;26.30;;;;;;5260683;27;20139;-65
2021/06/02 08:28:20;;;;;;;6.18;5.37;;;57.40;26.40;;;;;;5262975;27;20496;-64
2021/06/02 08:30:49;;;;;;;6.53;5.28;;;58.00;26.40;;;;;;5260362;27;20122;-63
2021/06/02 08:33:18;;;;;;;6.93;5.18;;;58.80;26.00;;;;;;5261590;27;20106;-64
2021/06/02 08:35:45;;;;;;;6.82;4.85;;;59.20;25.90;;;;;;5260713;27;20496;-63
2021/06/02 08:38:11;;;;;;;5.95;5.22;;;58.40;25.90;;;;;;5262370;27;20107;-64
2021/06/02 08:40:38;;;;;;;6.97;3.92;;;58.50;25.80;;;;;;5260726;27;20129;-63
2021/06/02 08:43:04;;;;;;;5.95;3.65;;;58.80;25.00;;;;;;5260172;27;20140;-64
2021/06/02 08:45:33;;;;;;;7.87;4.60;;;59.10;24.90;;;;;;5259445;27;20119;-64
2021/06/02 08:47:59;;;;;;;4.95;4.18;;;59.00;25.00;;;;;;5260820;27;20188;-63
2021/06/02 08:50:26;;;;;;;4.90;3.72;;;58.90;25.10;;;;;;5261225;27;20131;-63
2021/06/02 08:52:53;;;;;;;3.87;3.58;;;57.50;25.10;;;;;;5260568;27;20155;-63
2021/06/02 08:55:22;;;;;;;6.75;4.18;;;58.50;25.00;;;;;;5259998;27;20426;-65
2021/06/02 08:57:50;;;;;;;3.92;3.53;;;58.70;25.40;;;;;;5260006;27;20478;-63
2021/06/02 09:00:19;;;;;;;6.90;3.62;;;58.90;25.30;;;;;;5260626;27;20107;-62
2021/06/02 09:02:53;;;;;;;5.53;3.75;;;59.00;24.40;;;;;;5260642;27;20142;-64
2021/06/02 09:05:20;;;;;;;4.20;3.08;;;58.80;24.50;;;;;;5262910;27;20184;-65
2021/06/02 09:07:50;;;;;;;3.37;3.08;;;59.00;24.70;;;;;;5260542;27;20448;-62
2021/06/02 09:10:18;;;;;;;6.25;3.10;;;58.60;24.60;;;;;;5260801;27;20555;-63
2021/06/02 09:12:45;;;;;;;4.97;3.85;;;58.10;24.80;;;;;;5259974;27;20184;-63
2021/06/02 09:15:13;;;;;;;3.42;3.03;;;58.20;24.90;;;;;;5260790;27;20107;-64
2021/06/02 09:17:57;;;;;;;6.20;3.10;;;58.50;24.90;;;;;;5260252;27;20137;-65
2021/06/02 09:20:35;;;;;;;3.72;3.30;;;58.00;24.60;;;;;;5261383;27;20130;-64
2021/06/02 09:23:29;;;;;;;3.47;2.75;;;56.80;24.50;;;;;;5260250;27;20106;-65
2021/06/02 09:26:15;;;;;;;3.67;2.83;;;56.70;24.60;;;;;;5260150;27;20111;-68
2021/06/02 09:28:52;;;;;;;4.68;2.62;;;57.20;24.60;;;;;;5261506;27;20111;-66
2021/06/02 09:31:21;;;;;;;5.20;2.97;;;57.40;24.50;;;;;;5260453;27;20134;-65
2021/06/02 09:33:49;;;;;;;3.45;3.15;;;57.00;24.30;;;;;;5259960;27;20412;-64
2021/06/02 09:36:15;;;;;;;3.75;3.25;;;57.50;24.50;;;;;;5260352;27;20111;-67
2021/06/02 09:38:53;;;;;;;4.03;3.15;;;57.60;24.60;;;;;;5260681;27;20542;-65
2021/06/02 09:41:19;;;;;;;3.17;2.97;;;57.90;24.40;;;;;;5260314;27;20186;-64
2021/06/02 09:43:46;;;;;;;2.70;2.50;;;57.00;24.00;;;;;;5261188;27;20115;-63
2021/06/02 09:46:14;;;;;;;4.22;3.28;;;55.00;24.50;;;;;;5260183;27;20107;-63
2021/06/02 09:48:52;;;;;;;5.75;3.62;;;52.10;26.50;;;;;;5261481;27;20107;-63
2021/06/02 09:51:30;;;;;;;4.68;3.65;;;47.80;27.10;;;;;;5260863;27;20114;-62
2021/06/02 09:53:58;;;;;;;4.55;4.05;;;42.70;28.00;;;;;;5262337;27;20122;-65
2021/06/02 09:56:39;;;;;;;4.22;3.67;;;39.00;29.00;;;;;;5261359;27;20108;-64
2021/06/02 09:59:08;;;;;;;3.92;3.62;;;36.60;31.60;;;;;;5258818;27;20112;-66
2021/06/02 10:01:57;;;;;;;5.18;4.68;;;35.00;33.30;;;;;;5259293;27;20143;-64
2021/06/02 10:04:32;;;;;;;5.00;4.45;;;33.50;34.30;;;;;;5260344;27;20108;-65
2021/06/02 10:07:01;;;;;;;9.60;5.47;;;32.80;35.40;;;;;;5260538;27;20487;-65
2021/06/02 10:09:28;;;;;;;10.50;6.30;;;32.20;36.80;;;;;;5260275;27;20153;-64
2021/06/02 10:12:03;;;;;;;8.45;4.50;;;31.80;38.10;;;;;;5261971;27;20146;-66
2021/06/02 10:14:29;;;;;;;8.98;4.35;;;31.70;37.50;;;;;;5260452;27;20413;-66
2021/06/02 10:16:56;;;;;;;4.87;3.53;;;31.20;36.90;;;;;;5259793;27;20161;-67
2021/06/02 10:19:43;;;;;;;11.05;3.97;;;30.90;36.50;;;;;;5259099;27;20107;-65
2021/06/02 10:22:25;;;;;;;6.68;3.45;;;30.80;37.50;;;;;;5259610;27;20178;-65
2021/06/02 10:24:54;;;;;;;5.55;3.20;;;30.80;37.50;;;;;;5260264;27;20144;-65
2021/06/02 10:27:24;;;;;;;3.25;2.95;;;30.70;36.70;;;;;;5262288;27;20236;-65
2021/06/02 10:29:52;;;;;;;3.78;3.40;;;30.60;36.10;;;;;;5260080;27;20111;-65
2021/06/02 10:32:19;;;;;;;11.23;4.43;;;30.50;37.00;;;;;;5260492;27;20152;-64
2021/06/02 10:34:46;;;;;;;4.53;3.25;;;30.40;38.20;;;;;;5260023;27;20118;-64
2021/06/02 10:37:14;;;;;;;7.87;2.80;;;30.30;37.50;;;;;;5259877;27;20112;-66
2021/06/02 10:39:46;;;;;;;4.57;3.45;;;30.30;36.70;;;;;;5260825;27;20116;-64
2021/06/02 10:42:26;;;;;;;4.62;3.00;;;30.10;36.40;;;;;;5262688;27;20127;-66
2021/06/02 10:44:57;;;;;;;4.62;2.67;;;29.90;36.70;;;;;;5262702;27;20106;-66
2021/06/02 10:47:26;;;;;;;3.25;3.00;;;30.00;36.40;;;;;;5259515;27;20118;-65
2021/06/02 10:49:53;;;;;;;4.40;3.30;;;29.90;36.60;;;;;;5260861;27;20111;-66
2021/06/02 10:52:37;;;;;;;5.97;3.40;;;29.80;37.40;;;;;;5260422;27;20448;-65
2021/06/02 10:55:33;;;;;;;3.45;2.85;;;29.80;36.90;;;;;;5258424;27;20183;-66
2021/06/02 10:58:27;;;;;;;3.78;2.75;;;29.70;37.40;;;;;;5260069;27;20142;-65
2021/06/02 11:01:10;;;;;;;5.25;2.55;;;29.70;36.70;;;;;;5262035;27;20103;-66
2021/06/02 11:03:38;;;;;;;4.47;3.03;;;29.70;36.60;;;;;;5261695;27;20675;-67
2021/06/02 11:06:40;;;;;;;2.60;2.40;;;29.70;37.20;;;;;;5261032;27;20106;-63
2021/06/02 11:09:14;;;;;;;2.67;2.47;;;29.60;36.50;;;;;;5259442;27;20115;-63
2021/06/02 11:11:43;;;;;;;4.53;2.80;;;29.60;35.60;;;;;;5261221;27;20106;-67
2021/06/02 11:14:20;;;;;;;3.75;2.67;;;29.50;36.10;;;;;;5261515;27;20153;-65
2021/06/02 11:16:48;;;;;;;3.78;2.87;;;29.40;36.20;;;;;;5261336;27;20111;-66
2021/06/02 11:19:16;;;;;;;3.30;2.78;;;29.40;36.80;;;;;;5261302;27;20514;-66
2021/06/02 11:21:56;;;;;;;3.33;3.00;;;29.30;36.50;;;;;;5261424;27;20499;-65
2021/06/02 11:24:54;;;;;;;3.47;2.87;;;29.30;37.40;;;;;;5261010;27;20103;-64
2021/06/02 11:27:33;;;;;;;2.90;2.70;;;29.30;36.80;;;;;;5154947;27;20144;-65
2021/06/02 11:30:26;;;;;;;5.05;2.83;;;29.40;37.10;;;;;;5155346;27;20593;-64
2021/06/02 11:32:59;;;;;;;3.47;3.17;;;29.40;37.10;;;;;;5150657;27;20165;-64
2021/06/02 11:36:12;;;;;;;3.03;2.67;;;29.50;37.00;;;;;;5153080;27;20120;-67
2021/06/02 11:38:41;;;;;;;5.90;2.70;;;29.50;36.60;;;;;;5153011;27;20524;-64
2021/06/02 11:41:09;;;;;;;4.22;3.22;;;29.40;36.40;;;;;;5152217;27;20148;-65
2021/06/02 11:43:37;;;;;;;5.45;2.83;;;29.30;37.30;;;;;;5152575;27;20129;-66
2021/06/02 11:46:06;;;;;;;4.68;2.60;;;29.40;36.60;;;;;;5152560;27;20149;-65
2021/06/02 11:48:39;;;;;;;5.72;2.70;;;29.30;36.40;;;;;;5152222;27;20116;-65
2021/06/02 11:51:10;;;;;;;3.05;2.75;;;29.30;36.70;;;;;;5152449;27;20129;-66
2021/06/02 11:53:41;;;;;;;4.03;3.22;;;29.30;36.90;;;;;;5152298;27;20417;-66
2021/06/02 11:56:08;;;;;;;5.65;3.17;;;29.20;37.50;;;;;;5152273;27;20125;-64
2021/06/02 11:58:34;;;;;;;2.70;2.50;;;29.10;37.50;;;;;;5152327;27;20184;-66
2021/06/02 12:01:03;;;;;;;4.45;2.95;;;29.00;36.80;;;;;;5153028;27;20113;-65
2021/06/02 12:03:30;;;;;;;7.15;3.30;;;28.90;37.10;;;;;;5229386;27;20163;-66
2021/06/02 12:05:57;;;;;;;3.53;2.95;;;29.00;38.50;;;;;;5260281;27;20114;-64
2021/06/02 12:08:23;;;;;;;4.43;3.35;;;29.10;37.50;;;;;;5260515;27;20136;-66
2021/06/02 12:10:51;;;;;;;4.70;3.50;;;29.10;37.60;;;;;;5260219;27;20166;-66
2021/06/02 12:13:20;;;;;;;4.22;3.20;;;29.10;37.90;;;;;;5260058;27;20122;-64
2021/06/02 12:15:48;;;;;;;6.53;3.40;;;29.20;38.40;;;;;;5261029;27;20520;-66
2021/06/02 12:18:30;;;;;;;3.92;3.03;;;29.10;37.10;;;;;;5260447;27;20115;-66
2021/06/02 12:21:11;;;;;;;3.12;2.55;;;29.10;37.50;;;;;;5260275;27;20186;-65
2021/06/02 12:23:48;;;;;;;5.10;3.17;;;29.20;37.50;;;;;;5199161;27;1686382;-65
2021/06/02 12:26:19;;;;;;;3.53;2.97;;;29.30;39.30;;;;;;5260797;27;20126;-67
2021/06/02 12:28:45;;;;;;;4.32;3.40;;;29.10;36.70;;;;;;5260730;27;20107;-66
2021/06/02 12:31:45;;;;;;;7.10;3.17;;;29.10;37.90;;;;;;5260795;27;20447;-64
2021/06/02 12:34:16;;;;;;;4.18;2.90;;;29.10;37.40;;;;;;5261131;27;20111;-66
2021/06/02 12:36:48;;;;;;;6.68;2.90;;;29.00;37.80;;;;;;5260643;27;20142;-65
2021/06/02 12:39:16;;;;;;;3.60;3.30;;;29.10;38.00;;;;;;5260748;27;20163;-65
2021/06/02 12:41:44;;;;;;;4.20;3.78;;;29.00;38.60;;;;;;5260871;27;20107;-64
2021/06/02 12:44:12;;;;;;;7.57;3.53;;;29.10;38.50;;;;;;5260452;27;20171;-66
2021/06/02 12:46:38;;;;;;;13.43;3.95;;;29.20;39.70;;;;;;5260557;27;20166;-63
2021/06/02 12:49:06;;;;;;;6.53;3.58;;;29.10;39.30;;;;;;5261766;27;20106;-66
2021/06/02 12:51:34;;;;;;;5.32;3.40;;;29.10;39.40;;;;;;5260907;27;20154;-65
2021/06/02 12:54:01;;;;;;;6.35;3.45;;;29.10;39.80;;;;;;5263058;27;20135;-63
2021/06/02 12:56:28;;;;;;;4.90;3.22;;;29.20;40.00;;;;;;5260697;27;20396;-65
2021/06/02 12:58:55;;;;;;;3.75;3.22;;;29.20;38.30;;;;;;5260700;27;20107;-65
2021/06/02 13:01:28;;;;;;;5.97;3.50;;;29.10;39.00;;;;;;5261074;27;20107;-65
2021/06/02 13:03:57;;;;;;;4.00;3.40;;;29.10;38.50;;;;;;5261200;27;20151;-63
2021/06/02 13:06:25;;;;;;;4.15;3.45;;;29.00;38.40;;;;;;5261100;27;20519;-64
2021/06/02 13:08:54;;;;;;;4.70;3.28;;;29.00;38.40;;;;;;5260501;27;20137;-65
2021/06/02 13:11:28;;;;;;;7.82;3.30;;;29.00;39.10;;;;;;5260979;27;20112;-65
2021/06/02 13:13:55;;;;;;;3.42;3.12;;;29.10;39.00;;;;;;5260745;27;20137;-65
2021/06/02 13:16:22;;;;;;;3.28;2.83;;;29.20;39.30;;;;;;5260330;27;20539;-65
2021/06/02 13:18:57;;;;;;;5.37;3.25;;;29.00;37.80;;;;;;5258737;27;20114;-64
2021/06/02 13:21:28;;;;;;;3.25;2.95;;;29.00;38.60;;;;;;5261482;27;20139;-64
2021/06/02 13:24:08;;;;;;;4.40;3.08;;;29.10;39.90;;;;;;5260219;27;20111;-65
2021/06/02 13:26:34;;;;;;;3.58;3.22;;;29.30;39.10;;;;;;5260665;27;20103;-68
2021/06/02 13:29:01;;;;;;;5.40;3.30;;;29.30;38.40;;;;;;5260555;27;20468;-65
2021/06/02 13:31:37;;;;;;;4.37;3.97;;;29.20;38.40;;;;;;5262193;27;20508;-67
2021/06/02 13:34:03;;;;;;;4.97;2.95;;;29.10;38.70;;;;;;5261033;27;20115;-66
2021/06/02 13:36:30;;;;;;;5.25;3.45;;;29.20;38.60;;;;;;5260614;27;20135;-67
2021/06/02 13:39:13;;;;;;;3.85;3.53;;;29.20;37.40;;;;;;5260194;27;20106;-65